Time,TemperatureF,DewpointF,PressureIn,WindDirection,WindDirectionDegrees,WindSpeedMPH,WindSpeedGustMPH,Humidity,HourlyPrecipIn,Conditions,Clouds,dailyrainin,SoftwareType,DateUTC
2013-05-10 00:02:00,55.9,43.9,30.04,ENE,78,0.0,0.0,64,0.00,,,0.04,meteohub,2013-05-10 04:02:00,
2013-05-10 00:07:00,55.8,44.2,30.04,ENE,78,0.0,0.0,65,0.00,,,0.00,meteohub,2013-05-10 04:07:00,
2013-05-10 00:12:00,55.6,44.1,30.04,ENE,78,0.0,0.0,65,0.00,,,0.00,meteohub,2013-05-10 04:12:00,
2013-05-10 00:17:00,55.2,43.7,30.04,ENE,78,0.0,0.0,65,0.00,,,0.00,meteohub,2013-05-10 04:17:00,
2013-05-10 00:22:00,55.0,43.9,30.04,ENE,78,0.0,0.0,66,0.00,,,0.00,meteohub,2013-05-10 04:22:00,
2013-05-10 00:27:00,54.9,43.7,30.04,ENE,78,0.0,0.0,66,0.00,,,0.00,meteohub,2013-05-10 04:27:00,
2013-05-10 00:32:00,54.5,43.7,30.04,NW,325,0.0,4.0,67,0.00,,,0.00,meteohub,2013-05-10 04:32:00,
2013-05-10 00:37:00,54.1,43.5,30.04,WSW,258,0.0,4.0,67,0.00,,,0.00,meteohub,2013-05-10 04:37:00,
2013-05-10 00:42:00,54.0,43.7,30.04,West,280,0.0,4.0,68,0.00,,,0.00,meteohub,2013-05-10 04:42:00,
2013-05-10 00:47:00,53.8,43.5,30.04,West,280,0.0,4.0,68,0.00,,,0.00,meteohub,2013-05-10 04:47:00,
2013-05-10 00:52:00,53.6,43.7,30.04,West,280,0.0,0.0,69,0.00,,,0.00,meteohub,2013-05-10 04:52:00,
2013-05-10 00:57:00,53.4,43.5,30.04,WSW,258,0.0,0.0,69,0.00,,,0.00,meteohub,2013-05-10 04:57:00,
2013-05-10 01:02:00,53.4,43.5,30.04,ESE,122,0.0,0.0,69,0.00,,,0.00,meteohub,2013-05-10 05:02:00,
2013-05-10 01:17:00,53.2,43.7,30.04,East,100,0.0,0.0,70,0.00,,,0.00,meteohub,2013-05-10 05:17:00,
2013-05-10 01:22:00,53.1,43.5,30.04,East,100,0.0,0.0,70,0.00,,,0.00,meteohub,2013-05-10 05:22:00,
2013-05-10 01:27:00,52.9,43.3,30.04,East,100,0.0,0.0,70,0.00,,,0.00,meteohub,2013-05-10 05:27:00,
2013-05-10 01:32:00,52.5,43.3,30.04,East,100,0.0,0.0,71,0.00,,,0.00,meteohub,2013-05-10 05:32:00,
2013-05-10 01:37:00,52.5,43.3,30.04,SSE,168,0.0,0.0,71,0.00,,,0.00,meteohub,2013-05-10 05:37:00,
2013-05-10 01:42:00,52.3,43.2,30.04,SSE,168,0.0,0.0,71,0.00,,,0.00,meteohub,2013-05-10 05:42:00,
2013-05-10 01:47:00,52.3,43.2,30.04,SSE,168,0.0,0.0,71,0.00,,,0.00,meteohub,2013-05-10 05:47:00,
2013-05-10 01:52:00,51.8,42.8,30.04,SSE,168,0.0,0.0,71,0.00,,,0.00,meteohub,2013-05-10 05:52:00,
2013-05-10 01:57:00,51.6,43.0,30.04,ESE,122,0.0,0.0,72,0.00,,,0.00,meteohub,2013-05-10 05:57:00,
2013-05-10 02:02:00,51.6,43.0,30.04,SE,145,0.0,0.0,72,0.00,,,0.00,meteohub,2013-05-10 06:02:00,
2013-05-10 02:07:00,51.6,43.3,30.04,SE,145,0.0,0.0,73,0.00,,,0.00,meteohub,2013-05-10 06:07:00,
2013-05-10 02:12:00,51.6,43.3,30.04,ESE,122,0.0,0.0,73,0.00,,,0.00,meteohub,2013-05-10 06:12:00,
2013-05-10 02:17:00,51.4,43.2,30.04,NNW,348,0.0,0.0,73,0.00,,,0.00,meteohub,2013-05-10 06:17:00,
2013-05-10 02:22:00,51.3,43.0,30.04,NNW,348,0.0,0.0,73,0.00,,,0.00,meteohub,2013-05-10 06:22:00,
2013-05-10 02:27:00,50.9,42.6,30.04,NNW,348,0.0,0.0,73,0.00,,,0.00,meteohub,2013-05-10 06:27:00,
2013-05-10 02:32:00,50.9,42.6,30.04,NNW,348,0.0,0.0,73,0.00,,,0.00,meteohub,2013-05-10 06:32:00,
2013-05-10 02:37:00,50.9,42.6,30.04,NNW,348,0.0,0.0,73,0.00,,,0.00,meteohub,2013-05-10 06:37:00,
2013-05-10 02:42:00,50.7,42.4,30.04,NNE,32,0.0,0.0,73,0.00,,,0.00,meteohub,2013-05-10 06:42:00,
2013-05-10 02:47:00,50.7,42.8,30.04,NNE,32,0.0,0.0,74,0.00,,,0.00,meteohub,2013-05-10 06:47:00,
2013-05-10 02:52:00,50.4,42.4,30.04,NNE,32,0.0,0.0,74,0.00,,,0.00,meteohub,2013-05-10 06:52:00,
2013-05-10 02:57:00,50.5,42.6,30.04,NNE,32,0.0,0.0,74,0.00,,,0.00,meteohub,2013-05-10 06:57:00,
2013-05-10 03:02:00,50.4,42.4,30.04,NNE,32,0.0,0.0,74,0.00,,,0.00,meteohub,2013-05-10 07:02:00,
2013-05-10 03:07:00,50.4,42.4,30.04,NNE,32,0.0,0.0,74,0.00,,,0.00,meteohub,2013-05-10 07:07:00,
2013-05-10 03:12:00,50.2,42.3,30.04,NNE,32,0.0,0.0,74,0.00,,,0.00,meteohub,2013-05-10 07:12:00,
2013-05-10 03:17:00,50.2,42.6,30.04,NNE,32,0.0,0.0,75,0.00,,,0.00,meteohub,2013-05-10 07:17:00,
2013-05-10 03:22:00,50.2,42.6,30.04,NNE,32,0.0,0.0,75,0.00,,,0.00,meteohub,2013-05-10 07:22:00,
2013-05-10 03:27:00,50.2,42.6,30.04,NNE,32,0.0,0.0,75,0.00,,,0.00,meteohub,2013-05-10 07:27:00,
2013-05-10 03:32:00,50.0,42.4,30.04,NNE,32,0.0,0.0,75,0.00,,,0.00,meteohub,2013-05-10 07:32:00,
2013-05-10 03:37:00,49.8,42.6,30.04,NNE,32,0.0,0.0,76,0.00,,,0.00,meteohub,2013-05-10 07:37:00,
2013-05-10 03:42:00,49.6,42.4,30.04,NNE,32,0.0,0.0,76,0.00,,,0.00,meteohub,2013-05-10 07:42:00,
2013-05-10 03:47:00,49.6,42.4,30.04,NNE,32,0.0,0.0,76,0.00,,,0.00,meteohub,2013-05-10 07:47:00,
2013-05-10 03:57:00,49.5,42.3,30.04,NNE,32,0.0,0.0,76,0.00,,,0.00,meteohub,2013-05-10 07:57:00,
2013-05-10 04:02:00,49.5,42.3,30.04,NNE,32,0.0,0.0,76,0.00,,,0.00,meteohub,2013-05-10 08:02:00,
2013-05-10 04:07:00,49.5,42.3,30.04,NNE,32,0.0,0.0,76,0.00,,,0.00,meteohub,2013-05-10 08:07:00,
2013-05-10 04:12:00,49.3,42.4,30.04,NNE,32,0.0,0.0,77,0.00,,,0.00,meteohub,2013-05-10 08:12:00,
2013-05-10 04:17:00,49.3,42.4,30.04,NNE,32,0.0,0.0,77,0.00,,,0.00,meteohub,2013-05-10 08:17:00,
2013-05-10 04:22:00,49.1,42.3,30.04,NW,325,0.0,0.0,77,0.00,,,0.00,meteohub,2013-05-10 08:22:00,
2013-05-10 04:27:00,49.1,42.3,30.04,NW,325,0.0,0.0,77,0.00,,,0.00,meteohub,2013-05-10 08:27:00,
2013-05-10 04:32:00,49.1,42.6,30.04,NW,325,0.0,0.0,78,0.00,,,0.00,meteohub,2013-05-10 08:32:00,
2013-05-10 04:37:00,49.1,42.6,30.04,North,10,0.0,0.0,78,0.00,,,0.00,meteohub,2013-05-10 08:37:00,
2013-05-10 04:42:00,49.1,42.6,30.04,North,10,0.0,0.0,78,0.00,,,0.00,meteohub,2013-05-10 08:42:00,
2013-05-10 04:47:00,49.1,42.8,30.04,North,10,0.0,0.0,79,0.00,,,0.00,meteohub,2013-05-10 08:47:00,
2013-05-10 04:52:00,48.9,42.6,30.04,North,10,0.0,0.0,79,0.00,,,0.00,meteohub,2013-05-10 08:52:00,
2013-05-10 04:57:00,48.9,42.6,30.01,North,10,0.0,0.0,79,0.00,,,0.00,meteohub,2013-05-10 08:57:00,
2013-05-10 05:02:00,48.7,42.6,30.01,North,10,0.0,0.0,79,0.00,,,0.00,meteohub,2013-05-10 09:02:00,
2013-05-10 05:07:00,48.7,42.6,30.01,North,10,0.0,0.0,79,0.00,,,0.00,meteohub,2013-05-10 09:07:00,
2013-05-10 05:12:00,48.7,42.6,30.01,North,10,0.0,0.0,79,0.00,,,0.00,meteohub,2013-05-10 09:12:00,
2013-05-10 05:17:00,48.7,42.6,30.01,North,10,0.0,0.0,79,0.00,,,0.00,meteohub,2013-05-10 09:17:00,
2013-05-10 05:22:00,48.7,42.6,30.01,North,10,0.0,0.0,79,0.00,,,0.00,meteohub,2013-05-10 09:22:00,
2013-05-10 05:27:00,48.4,42.3,30.01,North,10,0.0,0.0,79,0.00,,,0.00,meteohub,2013-05-10 09:27:00,
2013-05-10 05:32:00,48.6,42.6,30.01,ESE,122,0.0,0.0,80,0.00,,,0.00,meteohub,2013-05-10 09:32:00,
2013-05-10 05:37:00,48.4,42.4,30.01,ESE,122,0.0,0.0,80,0.00,,,0.00,meteohub,2013-05-10 09:37:00,
2013-05-10 05:42:00,48.4,42.4,30.01,ESE,122,0.0,0.0,80,0.00,,,0.00,meteohub,2013-05-10 09:42:00,
2013-05-10 05:47:00,48.4,42.4,30.01,ESE,122,0.0,0.0,80,0.00,,,0.00,meteohub,2013-05-10 09:47:00,
2013-05-10 05:52:00,48.4,42.4,30.01,East,100,0.0,0.0,80,0.00,,,0.00,meteohub,2013-05-10 09:52:00,
2013-05-10 05:57:00,48.2,42.3,30.01,East,100,0.0,0.0,80,0.00,,,0.00,meteohub,2013-05-10 09:57:00,
2013-05-10 06:02:00,48.2,42.3,30.01,East,100,0.0,0.0,80,0.00,,,0.00,meteohub,2013-05-10 10:02:00,
2013-05-10 06:07:00,48.0,42.4,30.01,ESE,122,0.0,0.0,81,0.00,,,0.00,meteohub,2013-05-10 10:07:00,
2013-05-10 06:12:00,48.2,42.6,30.04,ESE,122,0.0,0.0,81,0.00,,,0.00,meteohub,2013-05-10 10:12:00,
2013-05-10 06:17:00,48.0,42.4,30.04,East,100,0.0,0.0,81,0.00,,,0.00,meteohub,2013-05-10 10:17:00,
2013-05-10 06:22:00,47.8,42.3,30.04,East,100,0.0,0.0,81,0.00,,,0.00,meteohub,2013-05-10 10:22:00,
2013-05-10 06:27:00,47.8,42.3,30.04,East,100,0.0,0.0,81,0.00,,,0.00,meteohub,2013-05-10 10:27:00,
2013-05-10 06:32:00,47.8,42.3,30.04,ENE,78,0.0,0.0,81,0.00,,,0.00,meteohub,2013-05-10 10:32:00,
2013-05-10 06:37:00,47.8,42.3,30.04,NE,55,0.0,0.0,81,0.00,,,0.00,meteohub,2013-05-10 10:37:00,
2013-05-10 06:42:00,47.7,42.4,30.04,NE,55,0.0,0.0,82,0.00,,,0.00,meteohub,2013-05-10 10:42:00,
2013-05-10 06:47:00,47.7,42.4,30.04,NE,55,0.0,0.0,82,0.00,,,0.00,meteohub,2013-05-10 10:47:00,
2013-05-10 06:52:00,47.7,42.4,30.04,NE,55,0.0,0.0,82,0.00,,,0.00,meteohub,2013-05-10 10:52:00,
2013-05-10 06:57:00,47.8,43.0,30.04,NE,55,0.0,0.0,83,0.00,,,0.00,meteohub,2013-05-10 10:57:00,
2013-05-10 07:02:00,47.8,43.0,30.04,NE,55,0.0,0.0,83,0.00,,,0.00,meteohub,2013-05-10 11:02:00,
2013-05-10 07:07:00,47.8,43.0,30.04,NW,325,0.0,0.0,83,0.00,,,0.00,meteohub,2013-05-10 11:07:00,
2013-05-10 07:12:00,47.8,43.0,30.04,North,10,0.0,2.0,83,0.00,,,0.00,meteohub,2013-05-10 11:12:00,
2013-05-10 07:27:00,47.8,43.2,30.04,NNW,348,0.0,2.0,84,0.00,,,0.00,meteohub,2013-05-10 11:27:00,
2013-05-10 07:37:00,48.0,43.7,30.04,West,280,2.0,3.0,85,0.00,,,0.00,meteohub,2013-05-10 11:37:00,
2013-05-10 07:42:00,48.2,43.5,30.04,SE,145,0.0,5.0,84,0.00,,,0.00,meteohub,2013-05-10 11:42:00,
2013-05-10 07:47:00,48.4,44.1,30.04,SE,145,0.0,5.0,85,0.00,,,0.00,meteohub,2013-05-10 11:47:00,
2013-05-10 07:52:00,48.4,44.1,30.04,NNW,348,0.0,5.0,85,0.00,,,0.00,meteohub,2013-05-10 11:52:00,
2013-05-10 07:57:00,48.6,44.2,30.04,North,10,0.0,0.0,85,0.00,,,0.00,meteohub,2013-05-10 11:57:00,
2013-05-10 08:02:00,48.7,44.4,30.04,NNW,348,0.0,3.0,85,0.00,,,0.00,meteohub,2013-05-10 12:02:00,
2013-05-10 08:07:00,48.7,44.4,30.04,NNW,348,0.0,3.0,85,0.00,,,0.00,meteohub,2013-05-10 12:07:00,
2013-05-10 08:12:00,48.9,44.6,30.01,NNW,348,0.0,3.0,85,0.00,,,0.00,meteohub,2013-05-10 12:12:00,
2013-05-10 08:17:00,49.1,44.8,30.01,NNW,348,0.0,2.0,85,0.00,,,0.00,meteohub,2013-05-10 12:17:00,
2013-05-10 08:22:00,49.3,45.0,30.01,NNW,348,0.0,0.0,85,0.00,,,0.00,meteohub,2013-05-10 12:22:00,
2013-05-10 08:27:00,49.5,45.5,30.04,NNW,348,0.0,0.0,86,0.00,,,0.00,meteohub,2013-05-10 12:27:00,
2013-05-10 08:32:00,49.8,45.9,30.04,NNW,348,0.0,0.0,86,0.00,,,0.00,meteohub,2013-05-10 12:32:00,
2013-05-10 08:37:00,50.2,46.2,30.04,NNW,348,0.0,0.0,86,0.00,,,0.00,meteohub,2013-05-10 12:37:00,
2013-05-10 08:42:00,50.5,46.6,30.01,NNW,348,0.0,0.0,86,0.00,,,0.00,meteohub,2013-05-10 12:42:00,
2013-05-10 08:47:00,50.9,46.9,30.01,NNW,348,0.0,0.0,86,0.00,,,0.00,meteohub,2013-05-10 12:47:00,
2013-05-10 08:52:00,51.4,47.1,30.01,NNW,348,0.0,0.0,85,0.00,,,0.00,meteohub,2013-05-10 12:52:00,
2013-05-10 08:57:00,51.8,47.5,30.01,NNW,348,0.0,2.0,85,0.00,,,0.00,meteohub,2013-05-10 12:57:00,
2013-05-10 09:02:00,52.5,48.2,30.01,NE,55,0.0,2.0,85,0.00,,,0.00,meteohub,2013-05-10 13:02:00,
2013-05-10 09:07:00,53.1,48.7,30.01,NE,55,0.0,2.0,85,0.00,,,0.00,meteohub,2013-05-10 13:07:00,
2013-05-10 09:12:00,53.6,48.9,30.01,North,10,0.0,0.0,84,0.00,,,0.00,meteohub,2013-05-10 13:12:00,
2013-05-10 09:17:00,54.3,49.3,30.01,NNW,348,2.0,3.0,83,0.00,,,0.00,meteohub,2013-05-10 13:17:00,
2013-05-10 09:22:00,55.0,50.0,30.01,North,10,3.0,3.0,83,0.00,,,0.00,meteohub,2013-05-10 13:22:00,
2013-05-10 09:27:00,55.9,50.9,29.99,NNW,348,5.0,5.0,83,0.00,,,0.00,meteohub,2013-05-10 13:27:00,
2013-05-10 09:32:00,56.7,51.3,29.99,North,10,3.0,5.0,82,0.00,,,0.00,meteohub,2013-05-10 13:32:00,
2013-05-10 09:37:00,57.0,51.3,29.99,NW,325,3.0,5.0,81,0.00,,,0.00,meteohub,2013-05-10 13:37:00,
2013-05-10 09:42:00,57.2,51.1,29.99,NW,325,0.0,5.0,80,0.00,,,0.00,meteohub,2013-05-10 13:42:00,
2013-05-10 09:47:00,58.5,52.0,30.01,North,10,0.0,5.0,79,0.00,,,0.00,meteohub,2013-05-10 13:47:00,
2013-05-10 09:52:00,59.0,52.2,30.01,NNW,348,0.0,5.0,78,0.00,,,0.00,meteohub,2013-05-10 13:52:00,
2013-05-10 09:57:00,59.9,53.1,29.99,North,10,0.0,2.0,78,0.00,,,0.00,meteohub,2013-05-10 13:57:00,
2013-05-10 10:02:00,60.8,53.6,29.99,North,10,3.0,4.0,77,0.00,,,0.00,meteohub,2013-05-10 14:02:00,
2013-05-10 10:07:00,61.5,53.6,29.99,North,10,2.0,4.0,75,0.00,,,0.00,meteohub,2013-05-10 14:07:00,
2013-05-10 10:12:00,62.2,53.8,29.99,North,10,3.0,5.0,74,0.00,,,0.00,meteohub,2013-05-10 14:12:00,
2013-05-10 10:17:00,63.1,54.3,29.99,NW,325,2.0,5.0,73,0.00,,,0.00,meteohub,2013-05-10 14:17:00,
2013-05-10 10:22:00,63.9,54.3,29.99,NE,55,4.0,5.0,71,0.00,,,0.00,meteohub,2013-05-10 14:22:00,
2013-05-10 10:27:00,64.4,54.5,29.99,NNE,32,2.0,6.0,70,0.00,,,0.00,meteohub,2013-05-10 14:27:00,
2013-05-10 10:32:00,65.3,54.5,29.99,NNW,348,6.0,11.0,68,0.00,,,0.00,meteohub,2013-05-10 14:32:00,
2013-05-10 10:37:00,65.8,54.1,29.99,North,10,5.0,11.0,66,0.00,,,0.00,meteohub,2013-05-10 14:37:00,
2013-05-10 10:42:00,66.6,54.5,29.99,North,10,8.0,11.0,65,0.00,,,0.00,meteohub,2013-05-10 14:42:00,
2013-05-10 10:47:00,67.5,54.9,29.99,WNW,302,9.0,12.0,64,0.00,,,0.00,meteohub,2013-05-10 14:47:00,
2013-05-10 10:52:00,68.4,55.2,29.99,NW,325,11.0,13.0,63,0.00,,,0.00,meteohub,2013-05-10 14:52:00,
2013-05-10 10:57:00,68.7,54.3,29.99,NNW,348,13.0,19.0,60,0.00,,,0.00,meteohub,2013-05-10 14:57:00,
2013-05-10 11:02:00,69.4,53.1,29.99,North,10,14.0,19.0,56,0.00,,,0.00,meteohub,2013-05-10 15:02:00,
2013-05-10 11:07:00,70.0,53.1,29.99,North,10,11.0,19.0,55,0.00,,,0.00,meteohub,2013-05-10 15:07:00,
2013-05-10 11:12:00,70.2,53.2,29.99,WNW,302,12.0,15.0,55,0.00,,,0.00,meteohub,2013-05-10 15:12:00,
2013-05-10 11:17:00,70.7,53.2,29.99,NW,325,11.0,15.0,54,0.00,,,0.00,meteohub,2013-05-10 15:17:00,
2013-05-10 11:22:00,70.7,52.2,29.99,NNW,348,8.0,16.0,52,0.00,,,0.00,meteohub,2013-05-10 15:22:00,
2013-05-10 11:27:00,71.1,53.1,29.99,WNW,302,5.0,16.0,53,0.00,,,0.00,meteohub,2013-05-10 15:27:00,
2013-05-10 11:32:00,71.2,52.7,29.99,WSW,258,3.0,16.0,52,0.00,,,0.00,meteohub,2013-05-10 15:32:00,
2013-05-10 11:37:00,71.2,52.2,29.99,NW,325,10.0,16.0,51,0.00,,,0.00,meteohub,2013-05-10 15:37:00,
2013-05-10 11:42:00,71.6,50.9,29.99,North,10,8.0,19.0,48,0.00,,,0.00,meteohub,2013-05-10 15:42:00,
2013-05-10 11:47:00,72.1,52.5,29.99,NNW,348,16.0,25.0,50,0.00,,,0.00,meteohub,2013-05-10 15:47:00,
2013-05-10 11:52:00,72.5,52.3,29.99,North,10,19.0,25.0,49,0.00,,,0.00,meteohub,2013-05-10 15:52:00,
2013-05-10 11:57:00,73.0,52.2,29.99,SSW,212,8.0,25.0,48,0.00,,,0.00,meteohub,2013-05-10 15:57:00,
2013-05-10 12:02:00,73.0,52.2,29.99,NNW,348,12.0,20.0,48,0.00,,,0.00,meteohub,2013-05-10 16:02:00,
2013-05-10 12:07:00,73.6,50.4,29.99,South,190,9.0,20.0,44,0.00,,,0.00,meteohub,2013-05-10 16:07:00,
2013-05-10 12:12:00,74.1,50.9,29.99,West,280,17.0,32.0,44,0.00,,,0.00,meteohub,2013-05-10 16:12:00,
2013-05-10 12:17:00,74.1,50.9,29.99,West,280,3.0,32.0,44,0.00,,,0.00,meteohub,2013-05-10 16:17:00,
2013-05-10 12:22:00,74.1,50.9,29.99,WNW,302,6.0,21.0,44,0.00,,,0.00,meteohub,2013-05-10 16:22:00,
2013-05-10 12:27:00,74.7,51.3,29.99,West,280,16.0,21.0,44,0.00,,,0.00,meteohub,2013-05-10 16:27:00,
2013-05-10 12:32:00,75.2,50.5,29.99,ENE,78,6.0,18.0,42,0.00,,,0.00,meteohub,2013-05-10 16:32:00,
2013-05-10 12:37:00,75.4,50.0,29.99,SW,235,5.0,20.0,41,0.00,,,0.00,meteohub,2013-05-10 16:37:00,
2013-05-10 12:42:00,75.0,49.8,29.96,East,100,7.0,20.0,41,0.00,,,0.00,meteohub,2013-05-10 16:42:00,
2013-05-10 12:47:00,75.6,50.2,29.96,NNE,32,9.0,21.0,41,0.00,,,0.00,meteohub,2013-05-10 16:47:00,
2013-05-10 12:52:00,75.9,49.8,29.96,West,280,8.0,21.0,40,0.00,,,0.00,meteohub,2013-05-10 16:52:00,
2013-05-10 12:57:00,75.7,49.1,29.96,WSW,258,6.0,18.0,39,0.00,,,0.00,meteohub,2013-05-10 16:57:00,
2013-05-10 13:02:00,75.7,48.4,29.96,North,10,12.0,18.0,38,0.00,,,0.00,meteohub,2013-05-10 17:02:00,
2013-05-10 13:07:00,76.1,48.7,29.96,NW,325,2.0,17.0,38,0.00,,,0.00,meteohub,2013-05-10 17:07:00,
2013-05-10 13:12:00,76.3,49.5,29.96,NW,325,13.0,17.0,39,0.00,,,0.00,meteohub,2013-05-10 17:12:00,
2013-05-10 13:17:00,75.9,48.6,29.96,WSW,258,8.0,27.0,38,0.00,,,0.00,meteohub,2013-05-10 17:17:00,
2013-05-10 13:22:00,76.1,48.0,29.96,ENE,78,5.0,27.0,37,0.00,,,0.00,meteohub,2013-05-10 17:22:00,
2013-05-10 13:27:00,76.3,47.3,29.96,SW,235,4.0,27.0,36,0.00,,,0.00,meteohub,2013-05-10 17:27:00,
2013-05-10 13:32:00,76.8,47.1,29.96,WSW,258,12.0,18.0,35,0.00,,,0.00,meteohub,2013-05-10 17:32:00,
2013-05-10 13:37:00,77.5,47.7,29.96,NNW,348,13.0,18.0,35,0.00,,,0.00,meteohub,2013-05-10 17:37:00,
2013-05-10 13:42:00,77.5,46.9,29.93,WNW,302,7.0,15.0,34,0.00,,,0.00,meteohub,2013-05-10 17:42:00,
2013-05-10 13:47:00,77.7,47.8,29.93,ENE,78,13.0,22.0,35,0.00,,,0.00,meteohub,2013-05-10 17:47:00,
2013-05-10 13:52:00,78.3,48.4,29.93,NW,325,9.0,22.0,35,0.00,,,0.00,meteohub,2013-05-10 17:52:00,
2013-05-10 13:57:00,78.1,48.2,29.93,West,280,24.0,24.0,35,0.00,,,0.00,meteohub,2013-05-10 17:57:00,
2013-05-10 14:02:00,77.5,46.9,29.93,NW,325,23.0,25.0,34,0.00,,,0.00,meteohub,2013-05-10 18:02:00,
2013-05-10 14:07:00,77.5,46.9,29.93,SW,235,6.0,25.0,34,0.00,,,0.00,meteohub,2013-05-10 18:07:00,
2013-05-10 14:12:00,78.3,47.7,29.93,SSW,212,8.0,25.0,34,0.00,,,0.00,meteohub,2013-05-10 18:12:00,
2013-05-10 14:17:00,78.6,47.1,29.93,West,280,11.0,23.0,33,0.00,,,0.00,meteohub,2013-05-10 18:17:00,
2013-05-10 14:22:00,78.8,47.3,29.93,SW,235,13.0,22.0,33,0.00,,,0.00,meteohub,2013-05-10 18:22:00,
2013-05-10 14:27:00,79.2,46.8,29.93,SSW,212,15.0,21.0,32,0.00,,,0.00,meteohub,2013-05-10 18:27:00,
2013-05-10 14:32:00,79.3,46.9,29.93,SW,235,17.0,25.0,32,0.00,,,0.00,meteohub,2013-05-10 18:32:00,
2013-05-10 14:37:00,79.5,47.1,29.93,ESE,122,13.0,25.0,32,0.00,,,0.00,meteohub,2013-05-10 18:37:00,
2013-05-10 14:42:00,79.3,46.9,29.93,SW,235,14.0,17.0,32,0.00,,,0.00,meteohub,2013-05-10 18:42:00,
2013-05-10 14:47:00,78.8,46.4,29.93,North,10,15.0,17.0,32,0.00,,,0.00,meteohub,2013-05-10 18:47:00,
2013-05-10 14:52:00,78.3,46.0,29.93,SW,235,5.0,22.0,32,0.00,,,0.00,meteohub,2013-05-10 18:52:00,
2013-05-10 14:57:00,78.6,46.4,29.93,ESE,122,7.0,22.0,32,0.00,,,0.00,meteohub,2013-05-10 18:57:00,
2013-05-10 15:02:00,78.8,45.7,29.93,SE,145,15.0,22.0,31,0.00,,,0.00,meteohub,2013-05-10 19:02:00,
2013-05-10 15:07:00,78.4,46.2,29.93,WNW,302,3.0,20.0,32,0.00,,,0.00,meteohub,2013-05-10 19:07:00,
2013-05-10 15:12:00,78.4,46.2,29.93,WNW,302,5.0,20.0,32,0.00,,,0.00,meteohub,2013-05-10 19:12:00,
2013-05-10 15:17:00,78.1,45.9,29.93,ENE,78,5.0,20.0,32,0.00,,,0.00,meteohub,2013-05-10 19:17:00,
2013-05-10 15:22:00,78.3,46.0,29.93,WNW,302,5.0,15.0,32,0.00,,,0.00,meteohub,2013-05-10 19:22:00,
2013-05-10 15:27:00,78.8,46.4,29.90,SW,235,7.0,15.0,32,0.00,,,0.00,meteohub,2013-05-10 19:27:00,
2013-05-10 15:32:00,78.3,46.0,29.90,WSW,258,11.0,17.0,32,0.00,,,0.00,meteohub,2013-05-10 19:32:00,
2013-05-10 15:37:00,78.1,45.9,29.90,SSE,168,8.0,17.0,32,0.00,,,0.00,meteohub,2013-05-10 19:37:00,
2013-05-10 15:42:00,77.7,45.5,29.93,West,280,13.0,17.0,32,0.00,,,0.00,meteohub,2013-05-10 19:42:00,
2013-05-10 15:47:00,76.8,45.5,29.93,SSW,212,13.0,21.0,33,0.00,,,0.00,meteohub,2013-05-10 19:47:00,
2013-05-10 15:52:00,76.5,46.0,29.93,SE,145,9.0,29.0,34,0.00,,,0.00,meteohub,2013-05-10 19:52:00,
2013-05-10 15:57:00,76.5,46.0,29.87,East,100,11.0,29.0,34,0.00,,,0.00,meteohub,2013-05-10 19:57:00,
2013-05-10 16:02:00,76.5,46.0,29.87,SW,235,4.0,21.0,34,0.00,,,0.00,meteohub,2013-05-10 20:02:00,
2013-05-10 16:07:00,77.0,45.7,29.87,SW,235,13.0,21.0,33,0.00,,,0.00,meteohub,2013-05-10 20:07:00,
2013-05-10 16:12:00,77.0,45.7,29.90,NW,325,7.0,21.0,33,0.00,,,0.00,meteohub,2013-05-10 20:12:00,
2013-05-10 16:17:00,77.2,45.9,29.90,North,10,6.0,21.0,33,0.00,,,0.00,meteohub,2013-05-10 20:17:00,
2013-05-10 16:22:00,76.6,45.3,29.90,WSW,258,12.0,21.0,33,0.00,,,0.00,meteohub,2013-05-10 20:22:00,
2013-05-10 16:27:00,76.3,45.9,29.93,East,100,9.0,15.0,34,0.00,,,0.00,meteohub,2013-05-10 20:27:00,
2013-05-10 16:32:00,73.9,44.6,29.93,WSW,258,21.0,22.0,35,0.00,,,0.00,meteohub,2013-05-10 20:32:00,
2013-05-10 16:37:00,72.7,44.2,29.93,South,190,6.0,30.0,36,0.00,,,0.00,meteohub,2013-05-10 20:37:00,
2013-05-10 16:42:00,72.3,44.6,29.93,South,190,3.0,30.0,37,0.00,,,0.00,meteohub,2013-05-10 20:42:00,
2013-05-10 16:47:00,71.1,45.5,29.93,SE,145,7.0,30.0,40,0.00,,,0.00,meteohub,2013-05-10 20:47:00,
2013-05-10 16:52:00,69.8,46.9,29.93,South,190,3.0,14.0,44,0.00,,,0.00,meteohub,2013-05-10 20:52:00,
2013-05-10 16:57:00,69.1,48.0,29.96,SW,235,5.0,14.0,47,0.00,,,0.00,meteohub,2013-05-10 20:57:00,
2013-05-10 17:02:00,68.9,47.8,29.96,SW,235,2.0,14.0,47,0.00,,,0.00,meteohub,2013-05-10 21:02:00,
2013-05-10 17:07:00,68.9,48.4,29.96,North,10,8.0,9.0,48,0.00,,,0.00,meteohub,2013-05-10 21:07:00,
2013-05-10 17:12:00,68.4,48.6,29.93,ESE,122,2.0,8.0,49,0.00,,,0.00,meteohub,2013-05-10 21:12:00,
2013-05-10 17:17:00,68.5,50.2,29.93,SE,145,3.0,8.0,52,0.00,,,0.00,meteohub,2013-05-10 21:17:00,
2013-05-10 17:22:00,68.5,50.7,29.93,SSE,168,7.0,8.0,53,0.00,,,0.00,meteohub,2013-05-10 21:22:00,
2013-05-10 17:27:00,68.2,51.4,29.93,SE,145,5.0,7.0,55,0.00,,,0.00,meteohub,2013-05-10 21:27:00,
2013-05-10 17:32:00,68.2,52.0,29.93,ENE,78,0.0,7.0,56,0.00,,,0.00,meteohub,2013-05-10 21:32:00,
2013-05-10 17:37:00,67.6,50.9,29.93,North,10,4.0,7.0,55,0.00,,,0.00,meteohub,2013-05-10 21:37:00,
2013-05-10 17:42:00,67.5,50.7,29.93,NE,55,4.0,6.0,55,0.00,,,0.00,meteohub,2013-05-10 21:42:00,
2013-05-10 17:47:00,67.1,51.8,29.93,South,190,0.0,6.0,58,0.00,,,0.00,meteohub,2013-05-10 21:47:00,
2013-05-10 17:52:00,67.1,52.7,29.93,SE,145,0.0,6.0,60,0.00,,,0.00,meteohub,2013-05-10 21:52:00,
2013-05-10 17:57:00,66.9,53.4,29.90,East,100,3.0,5.0,62,0.00,,,0.00,meteohub,2013-05-10 21:57:00,
2013-05-10 18:02:00,66.7,53.2,29.90,SE,145,3.0,4.0,62,0.00,,,0.00,meteohub,2013-05-10 22:02:00,
2013-05-10 18:07:00,66.7,53.8,29.90,SE,145,0.0,5.0,63,0.00,,,0.00,meteohub,2013-05-10 22:07:00,
2013-05-10 18:12:00,66.6,54.0,29.90,SE,145,3.0,5.0,64,0.00,,,0.00,meteohub,2013-05-10 22:12:00,
2013-05-10 18:17:00,66.0,54.0,29.90,East,100,3.0,5.0,65,0.00,,,0.00,meteohub,2013-05-10 22:17:00,
2013-05-10 18:22:00,65.8,54.1,29.90,ENE,78,0.0,5.0,66,0.00,,,0.00,meteohub,2013-05-10 22:22:00,
2013-05-10 18:27:00,65.8,54.1,29.93,SSE,168,0.0,5.0,66,0.00,,,0.00,meteohub,2013-05-10 22:27:00,
2013-05-10 18:32:00,65.5,54.3,29.93,East,100,5.0,5.0,67,0.00,,,0.00,meteohub,2013-05-10 22:32:00,
2013-05-10 18:37:00,64.8,54.0,29.93,WSW,258,5.0,7.0,68,0.00,,,0.00,meteohub,2013-05-10 22:37:00,
2013-05-10 18:42:00,64.4,54.0,29.93,West,280,7.0,16.0,69,0.04,,,0.04,meteohub,2013-05-10 22:42:00,
2013-05-10 18:47:00,64.0,53.6,29.93,West,280,8.0,20.0,69,0.04,,,0.04,meteohub,2013-05-10 22:47:00,
2013-05-10 18:52:00,63.7,53.8,29.93,NNE,32,9.0,20.0,70,0.04,,,0.04,meteohub,2013-05-10 22:52:00,
2013-05-10 18:57:00,63.3,53.4,29.96,SSW,212,5.0,12.0,70,0.04,,,0.04,meteohub,2013-05-10 22:57:00,
2013-05-10 19:02:00,63.1,53.6,29.96,SSW,212,6.0,16.0,71,0.04,,,0.04,meteohub,2013-05-10 23:02:00,
2013-05-10 19:07:00,63.0,53.4,29.96,East,100,8.0,16.0,71,0.04,,,0.04,meteohub,2013-05-10 23:07:00,
2013-05-10 19:12:00,62.4,54.0,29.93,WNW,302,6.0,16.0,74,0.09,,,0.09,meteohub,2013-05-10 23:12:00,
2013-05-10 19:17:00,62.6,53.4,29.93,SE,145,5.0,17.0,72,0.09,,,0.09,meteohub,2013-05-10 23:17:00,
2013-05-10 19:22:00,62.6,53.4,29.93,SSW,212,5.0,17.0,72,0.09,,,0.09,meteohub,2013-05-10 23:22:00,
2013-05-10 19:27:00,62.6,53.8,29.93,ESE,122,5.0,12.0,73,0.09,,,0.09,meteohub,2013-05-10 23:27:00,
2013-05-10 19:32:00,62.4,53.6,29.93,NNW,348,0.0,7.0,73,0.09,,,0.09,meteohub,2013-05-10 23:32:00,
2013-05-10 19:37:00,62.2,53.8,29.93,SSW,212,0.0,6.0,74,0.09,,,0.09,meteohub,2013-05-10 23:37:00,
2013-05-10 19:42:00,62.2,53.8,29.93,East,100,3.0,5.0,74,0.05,,,0.09,meteohub,2013-05-10 23:42:00,
2013-05-10 19:47:00,62.1,53.6,29.93,NE,55,0.0,4.0,74,0.09,,,0.13,meteohub,2013-05-10 23:47:00,
2013-05-10 19:52:00,61.9,54.0,29.93,SSE,168,0.0,5.0,75,0.09,,,0.13,meteohub,2013-05-10 23:52:00,
2013-05-10 19:57:00,62.1,54.5,29.93,South,190,0.0,5.0,76,0.09,,,0.13,meteohub,2013-05-10 23:57:00,
2013-05-10 20:02:00,62.1,54.1,29.93,ESE,122,4.0,4.0,75,0.09,,,0.13,meteohub,2013-05-11 00:02:00,
2013-05-10 20:07:00,61.9,54.3,29.93,SE,145,0.0,4.0,76,0.04,,,0.13,meteohub,2013-05-11 00:07:00,
2013-05-10 20:12:00,61.9,54.3,29.93,ESE,122,3.0,4.0,76,0.04,,,0.13,meteohub,2013-05-11 00:12:00,
2013-05-10 20:17:00,61.9,54.3,29.93,SSE,168,0.0,5.0,76,0.04,,,0.13,meteohub,2013-05-11 00:17:00,
2013-05-10 20:22:00,61.7,54.1,29.93,SW,235,0.0,5.0,76,0.04,,,0.13,meteohub,2013-05-11 00:22:00,
2013-05-10 20:32:00,61.5,54.3,29.93,SE,145,0.0,0.0,77,0.04,,,0.13,meteohub,2013-05-11 00:32:00,
2013-05-10 20:37:00,61.5,54.3,29.93,SE,145,0.0,0.0,77,0.04,,,0.13,meteohub,2013-05-11 00:37:00,
2013-05-10 20:42:00,61.5,54.3,29.93,East,100,0.0,0.0,77,0.04,,,0.13,meteohub,2013-05-11 00:42:00,
2013-05-10 20:47:00,61.2,54.0,29.93,ESE,122,0.0,0.0,77,0.00,,,0.13,meteohub,2013-05-11 00:47:00,
2013-05-10 20:52:00,61.3,54.5,29.93,ESE,122,0.0,0.0,78,0.00,,,0.13,meteohub,2013-05-11 00:52:00,
2013-05-10 20:57:00,61.3,54.5,29.93,SE,145,0.0,0.0,78,0.00,,,0.13,meteohub,2013-05-11 00:57:00,
2013-05-10 21:02:00,61.2,54.3,29.93,East,100,0.0,0.0,78,0.00,,,0.13,meteohub,2013-05-11 01:02:00,
2013-05-10 21:07:00,61.2,54.3,29.93,ESE,122,0.0,0.0,78,0.00,,,0.13,meteohub,2013-05-11 01:07:00,
2013-05-10 21:12:00,61.0,54.1,29.93,ESE,122,0.0,0.0,78,0.00,,,0.13,meteohub,2013-05-11 01:12:00,
2013-05-10 21:17:00,61.0,54.1,29.93,NE,55,3.0,0.0,78,0.00,,,0.13,meteohub,2013-05-11 01:17:00,
2013-05-10 21:22:00,60.6,54.5,29.93,ENE,78,0.0,4.0,80,0.00,,,0.13,meteohub,2013-05-11 01:22:00,
2013-05-10 21:27:00,60.8,54.3,29.93,ENE,78,0.0,4.0,79,0.00,,,0.13,meteohub,2013-05-11 01:27:00,
2013-05-10 21:32:00,60.6,54.5,29.93,ENE,78,0.0,4.0,80,0.00,,,0.13,meteohub,2013-05-11 01:32:00,
2013-05-10 21:37:00,60.6,54.5,29.93,ENE,78,0.0,0.0,80,0.00,,,0.13,meteohub,2013-05-11 01:37:00,
2013-05-10 21:42:00,60.4,54.3,29.93,North,10,0.0,0.0,80,0.00,,,0.13,meteohub,2013-05-11 01:42:00,
2013-05-10 21:47:00,60.4,54.3,29.93,SSW,212,0.0,0.0,80,0.00,,,0.13,meteohub,2013-05-11 01:47:00,
2013-05-10 21:52:00,60.3,54.5,29.93,South,190,0.0,0.0,81,0.00,,,0.13,meteohub,2013-05-11 01:52:00,
2013-05-10 21:57:00,60.3,54.5,29.93,South,190,0.0,0.0,81,0.00,,,0.13,meteohub,2013-05-11 01:57:00,
2013-05-10 22:02:00,60.3,54.5,29.93,SSE,168,0.0,0.0,81,0.00,,,0.13,meteohub,2013-05-11 02:02:00,
2013-05-10 22:07:00,60.3,54.5,29.93,SSE,168,0.0,0.0,81,0.00,,,0.13,meteohub,2013-05-11 02:07:00,
2013-05-10 22:12:00,60.3,54.5,29.93,SE,145,0.0,0.0,81,0.00,,,0.13,meteohub,2013-05-11 02:12:00,
2013-05-10 22:17:00,60.1,54.3,29.93,SE,145,0.0,0.0,81,0.00,,,0.13,meteohub,2013-05-11 02:17:00,
2013-05-10 22:22:00,60.1,54.3,29.93,ESE,122,0.0,0.0,81,0.00,,,0.13,meteohub,2013-05-11 02:22:00,
2013-05-10 22:27:00,59.9,54.3,29.93,NNE,32,0.0,0.0,82,0.00,,,0.13,meteohub,2013-05-11 02:27:00,
2013-05-10 22:32:00,59.9,54.3,29.93,ENE,78,0.0,0.0,82,0.00,,,0.13,meteohub,2013-05-11 02:32:00,
2013-05-10 22:37:00,59.9,54.3,29.93,ENE,78,0.0,0.0,82,0.00,,,0.13,meteohub,2013-05-11 02:37:00,
2013-05-10 22:42:00,59.9,54.3,29.93,ENE,78,0.0,0.0,82,0.00,,,0.13,meteohub,2013-05-11 02:42:00,
2013-05-10 22:47:00,59.9,54.3,29.93,ENE,78,0.0,0.0,82,0.00,,,0.13,meteohub,2013-05-11 02:47:00,
2013-05-10 22:52:00,59.9,54.3,29.93,ENE,78,0.0,0.0,82,0.00,,,0.13,meteohub,2013-05-11 02:52:00,
2013-05-10 22:57:00,59.9,54.7,29.93,ENE,78,0.0,0.0,83,0.00,,,0.13,meteohub,2013-05-11 02:57:00,
2013-05-10 23:02:00,59.7,54.5,29.93,ENE,78,0.0,0.0,83,0.00,,,0.13,meteohub,2013-05-11 03:02:00,
2013-05-10 23:07:00,59.7,54.5,29.93,ENE,78,0.0,0.0,83,0.00,,,0.13,meteohub,2013-05-11 03:07:00,
2013-05-10 23:12:00,59.7,54.5,29.93,ENE,78,0.0,0.0,83,0.00,,,0.13,meteohub,2013-05-11 03:12:00,
2013-05-10 23:17:00,59.7,54.5,29.93,ENE,78,0.0,0.0,83,0.00,,,0.13,meteohub,2013-05-11 03:17:00,
2013-05-10 23:22:00,59.7,54.5,29.93,ENE,78,0.0,0.0,83,0.00,,,0.13,meteohub,2013-05-11 03:22:00,
2013-05-10 23:27:00,59.7,54.5,29.90,ENE,78,0.0,0.0,83,0.00,,,0.13,meteohub,2013-05-11 03:27:00,
2013-05-10 23:32:00,59.7,54.9,29.90,ENE,78,0.0,0.0,84,0.00,,,0.13,meteohub,2013-05-11 03:32:00,
2013-05-10 23:37:00,59.7,54.9,29.90,ENE,78,0.0,0.0,84,0.00,,,0.13,meteohub,2013-05-11 03:37:00,
2013-05-10 23:42:00,59.5,54.7,29.90,ENE,78,0.0,0.0,84,0.00,,,0.13,meteohub,2013-05-11 03:42:00,
2013-05-10 23:47:00,59.4,54.5,29.90,ENE,78,0.0,0.0,84,0.00,,,0.13,meteohub,2013-05-11 03:47:00,
2013-05-10 23:52:00,59.5,54.7,29.90,ENE,78,0.0,0.0,84,0.00,,,0.13,meteohub,2013-05-11 03:52:00,
2013-05-10 23:57:00,59.5,54.7,29.90,ENE,78,0.0,0.0,84,0.00,,,0.13,meteohub,2013-05-11 03:57:00,